createdAt,value
2023-12-30T00:00:21.297Z,2.33
2023-12-30T00:02:23.695Z,1.40
2023-12-30T00:04:25.816Z,1.30
2023-12-30T00:06:27.878Z,1.50
2023-12-30T00:08:29.964Z,1.07
2023-12-30T00:10:32.131Z,1.40
2023-12-30T00:12:35.047Z,1.47
2023-12-30T00:14:37.081Z,1.20
2023-12-30T00:16:40.552Z,1.70
2023-12-30T00:18:42.742Z,1.50
2023-12-30T00:20:44.985Z,1.40
2023-12-30T00:22:47.109Z,1.50
2023-12-30T00:24:49.185Z,1.30
2023-12-30T00:26:51.481Z,1.10
2023-12-30T00:28:54.414Z,1.37
2023-12-30T00:30:56.698Z,1.30
2023-12-30T00:32:59.027Z,1.40
2023-12-30T00:35:01.291Z,1.70
2023-12-30T00:37:03.512Z,1.30
2023-12-30T00:39:05.595Z,1.20
2023-12-30T00:41:07.763Z,1.40
2023-12-30T00:43:09.849Z,1.20
2023-12-30T00:45:14.636Z,1.70
2023-12-30T00:47:18.461Z,1.30
2023-12-30T00:49:20.659Z,1.47
2023-12-30T00:51:22.814Z,1.30
2023-12-30T00:53:24.936Z,1.30
2023-12-30T00:55:27.043Z,1.10
2023-12-30T00:57:29.287Z,1.30
2023-12-30T00:59:31.390Z,1.43
2023-12-30T01:01:34.186Z,1.50
2023-12-30T01:03:36.282Z,1.20
2023-12-30T01:05:38.477Z,1.20
2023-12-30T01:07:40.482Z,1.37
2023-12-30T01:09:42.582Z,1.30
2023-12-30T01:11:44.714Z,1.70
2023-12-30T01:13:46.878Z,1.40
2023-12-30T01:15:49.556Z,1.67
2023-12-30T01:17:52.045Z,1.30
2023-12-30T01:19:54.340Z,1.40
2023-12-30T01:21:57.103Z,1.50
2023-12-30T01:23:59.392Z,1.30
2023-12-30T01:26:01.614Z,1.50
2023-12-30T01:28:03.947Z,1.40
2023-12-30T01:30:07.755Z,1.23
2023-12-30T01:32:10.009Z,1.30
2023-12-30T01:34:12.486Z,1.60
2023-12-30T01:36:14.756Z,1.43
2023-12-30T01:38:16.850Z,1.50
2023-12-30T01:40:19.033Z,1.90
2023-12-30T01:42:21.128Z,1.13
2023-12-30T01:44:23.164Z,1.53
2023-12-30T01:46:25.335Z,1.80
2023-12-30T01:48:29.374Z,1.50
2023-12-30T01:50:31.621Z,1.60
2023-12-30T01:52:34.856Z,1.50
2023-12-30T01:54:37.009Z,2.00
2023-12-30T01:56:39.142Z,1.80
2023-12-30T01:58:41.209Z,1.93
2023-12-30T02:00:43.568Z,2.00
2023-12-30T02:02:45.785Z,2.03
2023-12-30T02:04:48.422Z,1.63
2023-12-30T02:06:50.708Z,1.83
2023-12-30T02:08:52.969Z,1.80
2023-12-30T02:10:55.175Z,1.60
2023-12-30T02:12:58.320Z,1.87
2023-12-30T02:15:14.053Z,1.87
2023-12-30T02:17:16.078Z,1.83
2023-12-30T02:19:18.310Z,1.80
2023-12-30T02:21:20.723Z,1.60
2023-12-30T02:23:22.735Z,1.77
2023-12-30T02:25:24.856Z,1.60
2023-12-30T02:27:27.629Z,2.00
2023-12-30T02:29:29.876Z,1.80
2023-12-30T02:31:32.095Z,1.83
2023-12-30T02:33:34.312Z,2.23
2023-12-30T02:35:36.539Z,2.10
2023-12-30T02:37:38.821Z,2.10
2023-12-30T02:39:41.066Z,2.10
2023-12-30T02:41:43.339Z,2.00
2023-12-30T02:44:20.222Z,2.13
2023-12-30T02:46:22.628Z,2.00
2023-12-30T02:48:24.941Z,1.90
2023-12-30T02:50:27.194Z,3.13
2023-12-30T02:52:31.638Z,2.07
2023-12-30T02:54:36.154Z,2.30
2023-12-30T02:56:38.245Z,2.00
2023-12-30T02:58:40.400Z,2.20
2023-12-30T03:00:42.499Z,2.23
2023-12-30T03:02:44.580Z,1.60
2023-12-30T03:04:46.694Z,1.57
2023-12-30T03:06:48.902Z,1.73
2023-12-30T03:08:51.654Z,1.53
2023-12-30T03:10:53.864Z,1.63
2023-12-30T03:12:57.119Z,1.50
2023-12-30T03:14:59.212Z,1.70
2023-12-30T03:17:01.284Z,1.63
2023-12-30T03:19:03.818Z,1.40
2023-12-30T03:21:10.936Z,1.83
2023-12-30T03:23:13.006Z,1.50
2023-12-30T03:25:15.198Z,1.43
2023-12-30T03:27:17.346Z,1.40
2023-12-30T03:29:20.025Z,1.20
2023-12-30T03:31:26.152Z,1.23
2023-12-30T03:33:28.725Z,1.20
2023-12-30T03:35:31.351Z,1.63
2023-12-30T03:37:33.674Z,1.33
2023-12-30T03:39:35.882Z,1.60
2023-12-30T03:41:39.268Z,1.20
2023-12-30T03:43:41.510Z,1.20
2023-12-30T03:45:43.606Z,1.37
2023-12-30T03:47:46.960Z,1.50
2023-12-30T03:49:49.608Z,1.50
2023-12-30T03:51:51.729Z,1.40
2023-12-30T03:53:53.874Z,1.60
2023-12-30T03:55:55.962Z,1.40
2023-12-30T03:57:58.140Z,1.47
2023-12-30T04:00:00.301Z,1.50
2023-12-30T04:02:02.506Z,1.63
2023-12-30T04:04:04.698Z,1.77
2023-12-30T04:06:06.888Z,1.30
2023-12-30T04:08:08.992Z,1.50
2023-12-30T04:10:13.827Z,1.73
2023-12-30T04:12:15.887Z,2.00
2023-12-30T04:14:18.095Z,1.50
2023-12-30T04:16:20.319Z,1.60
2023-12-30T04:18:22.525Z,1.53
2023-12-30T04:20:24.590Z,1.40
2023-12-30T04:22:28.745Z,1.43
2023-12-30T04:24:30.790Z,1.80
2023-12-30T04:26:32.900Z,1.40
2023-12-30T04:28:35.425Z,1.53
2023-12-30T04:30:37.570Z,1.30
2023-12-30T04:32:39.889Z,1.50
2023-12-30T04:34:42.090Z,1.63
2023-12-30T04:36:44.110Z,1.30
2023-12-30T04:38:47.877Z,1.30
2023-12-30T04:40:50.025Z,1.27
2023-12-30T04:42:52.246Z,1.37
2023-12-30T04:44:54.257Z,1.27
2023-12-30T04:46:56.423Z,1.47
2023-12-30T04:49:02.610Z,1.40
2023-12-30T04:51:05.473Z,1.30
2023-12-30T04:53:08.782Z,1.50
2023-12-30T04:55:12.124Z,1.37
2023-12-30T04:57:14.420Z,1.50
2023-12-30T04:59:16.506Z,1.20
2023-12-30T05:01:18.875Z,1.30
2023-12-30T05:03:20.979Z,1.40
2023-12-30T05:05:23.112Z,1.20
2023-12-30T05:07:26.371Z,1.40
2023-12-30T05:09:28.446Z,1.20
2023-12-30T05:11:30.756Z,1.47
2023-12-30T05:13:33.605Z,1.53
2023-12-30T05:15:35.708Z,1.40
2023-12-30T05:17:37.890Z,1.60
2023-12-30T05:19:39.963Z,1.83
2023-12-30T05:21:42.934Z,1.30
2023-12-30T05:23:45.442Z,1.30
2023-12-30T05:25:47.456Z,1.50
2023-12-30T05:27:49.540Z,1.63
2023-12-30T05:29:51.589Z,1.40
2023-12-30T05:31:53.752Z,1.50
2023-12-30T05:33:55.981Z,1.60
2023-12-30T05:35:58.177Z,2.00
2023-12-30T05:38:00.286Z,2.07
2023-12-30T05:40:02.810Z,1.90
2023-12-30T05:42:05.182Z,1.63
2023-12-30T05:44:07.380Z,1.60
2023-12-30T05:46:15.600Z,1.30
2023-12-30T05:48:17.959Z,1.50
2023-12-30T05:50:20.148Z,2.03
2023-12-30T05:52:22.386Z,1.20
2023-12-30T05:54:26.550Z,1.67
2023-12-30T05:56:28.641Z,1.60
2023-12-30T05:58:30.819Z,2.10
2023-12-30T06:00:33.012Z,1.70
2023-12-30T06:02:35.168Z,1.77
2023-12-30T06:04:43.376Z,1.80
2023-12-30T06:06:45.646Z,1.30
2023-12-30T06:08:48.040Z,1.60
2023-12-30T06:10:52.690Z,1.93
2023-12-30T06:12:54.888Z,1.80
2023-12-30T06:14:57.165Z,1.93
2023-12-30T06:16:59.491Z,1.87
2023-12-30T06:19:01.626Z,1.57
2023-12-30T06:21:06.128Z,1.73
2023-12-30T06:23:08.252Z,1.60
2023-12-30T06:25:10.369Z,2.07
2023-12-30T06:27:12.478Z,1.63
2023-12-30T06:29:14.618Z,1.70
2023-12-30T06:31:16.952Z,1.90
2023-12-30T06:33:20.707Z,1.87
2023-12-30T06:35:22.831Z,1.73
2023-12-30T06:37:24.919Z,1.80
2023-12-30T06:39:27.129Z,2.00
2023-12-30T06:41:29.170Z,1.93
2023-12-30T06:43:31.281Z,2.07
2023-12-30T06:45:33.367Z,2.63
2023-12-30T06:47:37.377Z,2.37
2023-12-30T06:49:40.611Z,2.00
2023-12-30T06:51:43.806Z,2.37
2023-12-30T06:53:45.877Z,2.30
2023-12-30T06:55:48.804Z,2.10
2023-12-30T06:57:51.101Z,2.07
2023-12-30T06:59:53.266Z,2.93
2023-12-30T07:01:55.481Z,2.33
2023-12-30T07:03:57.773Z,2.10
2023-12-30T07:06:00.011Z,2.20
2023-12-30T07:08:02.000Z,2.03
2023-12-30T07:10:08.042Z,2.70
2023-12-30T07:12:10.198Z,2.23
2023-12-30T07:14:12.704Z,2.43
2023-12-30T07:16:17.987Z,2.67
2023-12-30T07:18:20.348Z,2.67
2023-12-30T07:20:22.588Z,2.07
2023-12-30T07:22:25.885Z,2.30
2023-12-30T07:24:27.951Z,2.40
2023-12-30T07:26:30.049Z,2.23
2023-12-30T07:28:32.163Z,2.23
2023-12-30T07:30:35.208Z,2.60
2023-12-30T07:32:38.607Z,2.50
2023-12-30T07:34:41.225Z,2.40
2023-12-30T07:36:43.339Z,2.30
2023-12-30T07:38:45.364Z,2.23
2023-12-30T07:40:47.546Z,2.20
2023-12-30T07:42:49.652Z,17.20
2023-12-30T07:44:53.124Z,17.70
2023-12-30T07:46:55.233Z,6.20
2023-12-30T07:48:57.478Z,3.80
2023-12-30T07:51:01.166Z,5.43
2023-12-30T07:53:04.171Z,11.13
2023-12-30T07:55:06.669Z,12.77
2023-12-30T07:57:08.765Z,13.17
2023-12-30T07:59:12.968Z,4.60
2023-12-30T08:01:15.106Z,4.10
2023-12-30T08:03:17.383Z,3.23
2023-12-30T08:05:19.757Z,3.40
2023-12-30T08:07:22.857Z,4.57
2023-12-30T08:09:24.981Z,6.00
2023-12-30T08:11:27.282Z,4.70
2023-12-30T08:13:29.489Z,3.53
2023-12-30T08:15:31.562Z,4.57
2023-12-30T08:17:33.868Z,3.50
2023-12-30T08:19:36.137Z,3.07
2023-12-30T08:21:38.335Z,3.60
2023-12-30T08:23:40.546Z,3.83
2023-12-30T08:25:42.724Z,2.47
2023-12-30T08:27:44.874Z,2.77
2023-12-30T08:29:47.231Z,3.40
2023-12-30T08:31:49.566Z,2.97
2023-12-30T08:33:52.401Z,4.40
2023-12-30T08:35:54.540Z,3.47
2023-12-30T08:37:56.558Z,5.73
2023-12-30T08:39:58.625Z,5.63
2023-12-30T08:42:00.752Z,4.13
2023-12-30T08:44:03.720Z,3.07
2023-12-30T08:46:05.969Z,2.50
2023-12-30T08:48:08.392Z,1.93
2023-12-30T08:50:10.759Z,3.00
2023-12-30T08:52:12.931Z,2.87
2023-12-30T08:54:15.032Z,3.53
2023-12-30T08:56:17.137Z,2.60
2023-12-30T08:58:19.665Z,2.73
2023-12-30T09:00:21.863Z,2.80
2023-12-30T09:02:24.196Z,2.47
2023-12-30T09:04:26.413Z,2.60
2023-12-30T09:06:28.616Z,2.00
2023-12-30T09:08:30.644Z,2.90
2023-12-30T09:10:32.874Z,5.00
2023-12-30T09:12:34.936Z,2.77
2023-12-30T09:14:36.983Z,3.40
2023-12-30T09:16:39.232Z,2.00
2023-12-30T09:18:41.401Z,2.53
2023-12-30T09:20:44.523Z,2.20
2023-12-30T09:22:46.610Z,2.50
2023-12-30T09:24:48.682Z,2.60
2023-12-30T09:26:50.736Z,3.17
2023-12-30T09:28:53.405Z,2.47
2023-12-30T09:30:55.649Z,4.83
2023-12-30T09:32:57.986Z,3.30
2023-12-30T09:35:03.036Z,2.00
2023-12-30T09:37:05.516Z,4.20
2023-12-30T09:39:11.772Z,3.03
2023-12-30T09:41:14.727Z,3.57
2023-12-30T09:43:20.579Z,3.10
2023-12-30T09:45:23.306Z,3.90
2023-12-30T09:47:25.714Z,2.60
2023-12-30T09:49:30.109Z,2.60
2023-12-30T09:51:33.049Z,2.80
2023-12-30T09:53:35.154Z,2.53
2023-12-30T09:55:37.193Z,3.57
2023-12-30T09:57:39.754Z,3.10
2023-12-30T09:59:41.943Z,4.33
2023-12-30T10:01:44.336Z,3.10
2023-12-30T10:03:46.617Z,3.60
2023-12-30T10:05:52.772Z,3.97
2023-12-30T10:07:55.374Z,4.17
2023-12-30T10:09:57.406Z,2.43
2023-12-30T10:11:59.642Z,3.13
2023-12-30T10:14:03.520Z,2.23
2023-12-30T10:16:07.098Z,4.20
2023-12-30T10:18:09.779Z,3.00
2023-12-30T10:20:12.490Z,2.00
2023-12-30T10:22:14.689Z,2.60
2023-12-30T10:24:16.898Z,2.10
2023-12-30T10:26:20.063Z,1.60
2023-12-30T10:28:22.218Z,3.40
2023-12-30T10:30:24.482Z,2.57
2023-12-30T10:32:27.032Z,2.40
2023-12-30T10:34:29.180Z,4.77
2023-12-30T10:36:31.282Z,3.57
2023-12-30T10:38:34.153Z,6.97
2023-12-30T10:40:37.209Z,2.60
2023-12-30T10:42:42.519Z,2.00
2023-12-30T10:44:44.594Z,2.70
2023-12-30T10:46:49.999Z,2.77
2023-12-30T10:48:57.531Z,2.33
2023-12-30T10:51:00.718Z,2.40
2023-12-30T10:53:06.530Z,2.57
2023-12-30T10:55:11.314Z,3.40
2023-12-30T10:57:16.009Z,2.50
2023-12-30T10:59:19.457Z,3.13
2023-12-30T11:01:21.831Z,2.30
2023-12-30T11:03:25.117Z,2.40
2023-12-30T11:06:02.715Z,2.50
2023-12-30T11:08:05.529Z,2.47
2023-12-30T11:10:20.335Z,2.37
2023-12-30T11:12:22.371Z,2.60
2023-12-30T11:14:25.691Z,2.30
2023-12-30T11:16:34.055Z,2.23
2023-12-30T11:18:54.911Z,3.10
2023-12-30T11:20:57.302Z,2.23
2023-12-30T11:23:04.534Z,1.90
2023-12-30T11:25:09.372Z,2.77
2023-12-30T11:27:11.580Z,2.47
2023-12-30T11:29:15.441Z,1.80
2023-12-30T11:31:18.593Z,2.23
2023-12-30T11:33:20.844Z,2.23
2023-12-30T11:35:23.096Z,2.10
2023-12-30T11:37:25.270Z,2.20
2023-12-30T11:39:29.194Z,1.83
2023-12-30T11:41:32.248Z,2.10
2023-12-30T11:43:34.644Z,2.20
2023-12-30T11:45:36.903Z,2.63
2023-12-30T11:47:39.329Z,2.10
2023-12-30T11:49:41.948Z,3.30
2023-12-30T11:51:44.209Z,4.10
2023-12-30T11:53:46.326Z,3.43
2023-12-30T11:55:48.433Z,3.10
2023-12-30T11:57:50.992Z,2.57
2023-12-30T11:59:53.115Z,1.83
2023-12-30T12:02:07.758Z,2.10
2023-12-30T12:04:10.049Z,2.10
2023-12-30T12:06:12.564Z,2.10
2023-12-30T12:08:14.816Z,1.97
2023-12-30T12:10:16.908Z,2.10
2023-12-30T12:12:23.404Z,2.50
2023-12-30T12:14:25.995Z,2.53
2023-12-30T12:16:29.731Z,2.27
2023-12-30T12:18:32.103Z,2.40
2023-12-30T12:20:39.020Z,2.30
2023-12-30T12:22:41.206Z,2.03
2023-12-30T12:24:43.563Z,1.77
2023-12-30T12:26:45.607Z,1.83
2023-12-30T12:28:48.462Z,2.40
2023-12-30T12:30:51.272Z,2.20
2023-12-30T12:32:56.344Z,2.13
2023-12-30T12:34:59.053Z,2.10
2023-12-30T12:37:01.318Z,2.17
2023-12-30T12:39:03.496Z,1.70
2023-12-30T12:41:05.650Z,2.40
2023-12-30T12:43:07.911Z,2.23
2023-12-30T12:45:10.472Z,2.30
2023-12-30T12:47:12.805Z,1.70
2023-12-30T12:49:19.208Z,2.00
2023-12-30T12:51:22.898Z,1.80
2023-12-30T12:53:25.110Z,2.03
2023-12-30T12:55:27.407Z,1.80
2023-12-30T12:57:32.095Z,2.10
2023-12-30T12:59:34.361Z,1.93
2023-12-30T13:01:37.255Z,1.93
2023-12-30T13:03:39.462Z,2.27
2023-12-30T13:05:41.773Z,2.20
2023-12-30T13:07:45.000Z,1.83
2023-12-30T13:09:54.844Z,1.80
2023-12-30T13:11:57.850Z,2.07
2023-12-30T13:14:01.047Z,1.83
2023-12-30T13:16:03.252Z,2.10
2023-12-30T13:18:09.314Z,2.20
2023-12-30T13:20:12.143Z,1.77
2023-12-30T13:22:14.412Z,1.93
2023-12-30T13:24:16.505Z,1.67
2023-12-30T13:26:20.039Z,1.80
2023-12-30T13:28:22.963Z,2.43
2023-12-30T13:30:25.065Z,2.40
2023-12-30T13:32:29.559Z,2.23
2023-12-30T13:34:32.646Z,2.30
2023-12-30T13:36:36.387Z,1.60
2023-12-30T13:38:41.688Z,1.70
2023-12-30T13:40:45.609Z,1.73
2023-12-30T13:42:50.617Z,1.80
2023-12-30T13:44:57.378Z,2.30
2023-12-30T13:47:06.793Z,2.10
2023-12-30T13:49:12.057Z,2.27
2023-12-30T13:51:17.934Z,2.23
2023-12-30T13:53:21.465Z,2.73
2023-12-30T13:55:24.270Z,2.50
2023-12-30T13:57:28.583Z,2.33
2023-12-30T13:59:30.780Z,2.80
2023-12-30T14:01:34.602Z,3.10
2023-12-30T14:03:38.151Z,1.90
2023-12-30T14:05:45.837Z,2.20
2023-12-30T14:07:52.208Z,2.57
2023-12-30T14:10:07.893Z,2.87
2023-12-30T14:12:12.553Z,3.37
2023-12-30T14:14:15.503Z,2.93
2023-12-30T14:16:17.655Z,3.93
2023-12-30T14:18:20.282Z,2.20
2023-12-30T14:20:22.629Z,2.90
2023-12-30T14:22:24.733Z,2.77
2023-12-30T14:24:26.820Z,2.70
2023-12-30T14:26:29.442Z,2.63
2023-12-30T14:28:31.912Z,2.97
2023-12-30T14:30:36.214Z,42.97
2023-12-30T14:32:38.568Z,4.80
2023-12-30T14:34:42.287Z,8.60
2023-12-30T14:36:44.519Z,25.23
2023-12-30T14:38:47.742Z,17.40
2023-12-30T14:40:49.951Z,40.03
2023-12-30T14:42:52.367Z,17.27
2023-12-30T14:44:54.454Z,10.10
2023-12-30T14:46:57.161Z,8.80
2023-12-30T14:48:59.453Z,6.57
2023-12-30T14:51:01.645Z,8.27
2023-12-30T14:53:05.078Z,4.63
2023-12-30T14:55:10.545Z,5.97
2023-12-30T14:57:13.279Z,8.40
2023-12-30T14:59:15.438Z,7.00
2023-12-30T15:01:17.956Z,6.20
2023-12-30T15:03:20.410Z,4.60
2023-12-30T15:05:23.743Z,3.40
2023-12-30T15:07:26.835Z,3.10
2023-12-30T15:09:29.109Z,3.40
2023-12-30T15:11:31.504Z,3.47
2023-12-30T15:13:33.615Z,2.83
2023-12-30T15:15:35.660Z,3.07
2023-12-30T15:17:38.029Z,3.30
2023-12-30T15:19:40.184Z,2.80
2023-12-30T15:21:42.430Z,3.57
2023-12-30T15:23:44.662Z,3.30
2023-12-30T15:25:47.943Z,3.80
2023-12-30T15:27:53.863Z,4.30
2023-12-30T15:29:56.245Z,4.10
2023-12-30T15:31:58.725Z,5.07
2023-12-30T15:34:01.104Z,4.63
2023-12-30T15:36:04.794Z,4.93
2023-12-30T15:38:07.631Z,5.60
2023-12-30T15:40:10.300Z,5.47
2023-12-30T15:42:12.843Z,5.20
2023-12-30T15:44:15.539Z,4.00
2023-12-30T15:46:18.255Z,4.00
2023-12-30T15:48:20.447Z,3.70
2023-12-30T15:50:22.721Z,11.63
2023-12-30T15:52:24.970Z,12.47
2023-12-30T15:54:27.200Z,7.60
2023-12-30T15:56:29.947Z,7.00
2023-12-30T15:58:32.011Z,12.00
2023-12-30T16:00:34.156Z,9.70
2023-12-30T16:02:36.358Z,7.57
2023-12-30T16:04:38.574Z,7.10
2023-12-30T16:06:42.019Z,6.40
2023-12-30T16:08:44.314Z,4.43
2023-12-30T16:10:46.503Z,5.37
2023-12-30T16:12:49.276Z,4.40
2023-12-30T16:14:51.836Z,4.30
2023-12-30T16:16:53.958Z,3.27
2023-12-30T16:18:56.501Z,3.27
2023-12-30T16:20:59.132Z,2.90
2023-12-30T16:23:05.231Z,3.17
2023-12-30T16:25:07.894Z,2.90
2023-12-30T16:27:10.044Z,2.97
2023-12-30T16:29:12.106Z,3.20
2023-12-30T16:31:14.333Z,3.10
2023-12-30T16:33:16.476Z,3.90
2023-12-30T16:35:19.193Z,3.80
2023-12-30T16:37:23.927Z,4.57
2023-12-30T16:39:26.055Z,4.10
2023-12-30T16:41:28.221Z,3.60
2023-12-30T16:43:37.108Z,4.37
2023-12-30T16:45:41.490Z,3.30
2023-12-30T16:47:43.685Z,3.30
2023-12-30T16:49:45.897Z,2.57
2023-12-30T16:51:48.420Z,3.50
2023-12-30T16:53:50.523Z,3.63
2023-12-30T16:55:52.866Z,3.50
2023-12-30T16:57:56.107Z,3.27
2023-12-30T16:59:58.134Z,4.07
2023-12-30T17:02:01.411Z,3.57
2023-12-30T17:04:04.569Z,4.20
2023-12-30T17:06:06.724Z,7.00
2023-12-30T17:08:09.105Z,7.73
2023-12-30T17:10:11.244Z,12.00
2023-12-30T17:12:13.392Z,10.07
2023-12-30T17:14:15.592Z,9.37
2023-12-30T17:16:18.408Z,6.90
2023-12-30T17:18:20.575Z,7.63
2023-12-30T17:20:22.658Z,5.80
2023-12-30T17:22:25.044Z,5.47
2023-12-30T17:24:27.114Z,5.27
2023-12-30T17:26:29.264Z,4.87
2023-12-30T17:28:31.451Z,6.90
2023-12-30T17:30:33.656Z,5.10
2023-12-30T17:32:37.109Z,6.50
2023-12-30T17:34:39.627Z,4.80
2023-12-30T17:36:41.824Z,4.20
2023-12-30T17:38:43.944Z,4.00
2023-12-30T17:40:46.005Z,6.80
2023-12-30T17:42:48.944Z,11.80
2023-12-30T17:44:51.103Z,4.70
2023-12-30T17:46:53.125Z,3.27
2023-12-30T17:48:55.230Z,4.50
2023-12-30T17:50:57.940Z,4.53
2023-12-30T17:53:01.049Z,3.30
2023-12-30T17:55:04.124Z,3.50
2023-12-30T17:57:07.037Z,3.60
2023-12-30T17:59:09.159Z,3.73
2023-12-30T18:01:12.877Z,3.50
2023-12-30T18:03:15.138Z,3.23
2023-12-30T18:05:17.631Z,3.70
2023-12-30T18:07:19.744Z,3.70
2023-12-30T18:09:21.874Z,4.83
2023-12-30T18:11:24.037Z,4.63
2023-12-30T18:13:26.260Z,4.43
2023-12-30T18:15:28.750Z,4.00
2023-12-30T18:17:31.687Z,9.67
2023-12-30T18:19:33.908Z,8.67
2023-12-30T18:21:36.042Z,7.83
2023-12-30T18:23:38.063Z,6.57
2023-12-30T18:25:40.621Z,7.60
2023-12-30T18:27:42.776Z,5.90
2023-12-30T18:29:44.901Z,4.33
2023-12-30T18:31:47.755Z,4.60
2023-12-30T18:33:49.859Z,4.90
2023-12-30T18:35:51.981Z,5.03
2023-12-30T18:37:53.989Z,4.97
2023-12-30T18:39:56.051Z,5.87
2023-12-30T18:41:58.122Z,5.87
2023-12-30T18:44:00.672Z,5.70
2023-12-30T18:46:02.867Z,5.10
2023-12-30T18:48:05.569Z,5.10
2023-12-30T18:50:08.177Z,7.20
2023-12-30T18:52:10.383Z,6.20
2023-12-30T18:54:12.528Z,6.00
2023-12-30T18:56:14.653Z,6.70
2023-12-30T18:58:16.775Z,7.10
2023-12-30T19:00:24.757Z,7.30
2023-12-30T19:02:26.877Z,6.27
2023-12-30T19:04:30.196Z,5.93
2023-12-30T19:06:32.422Z,5.40
2023-12-30T19:08:35.828Z,6.80
2023-12-30T19:10:37.919Z,5.77
2023-12-30T19:12:40.119Z,6.50
2023-12-30T19:14:42.187Z,6.37
2023-12-30T19:16:44.334Z,6.20
2023-12-30T19:18:47.209Z,5.47
2023-12-30T19:20:49.412Z,5.73
2023-12-30T19:22:51.593Z,5.40
2023-12-30T19:24:53.638Z,4.87
2023-12-30T19:26:55.814Z,5.83
2023-12-30T19:28:57.951Z,5.90
2023-12-30T19:31:00.141Z,5.00
2023-12-30T19:33:05.022Z,5.70
2023-12-30T19:35:09.385Z,6.53
2023-12-30T19:37:11.989Z,6.93
2023-12-30T19:39:14.193Z,6.83
2023-12-30T19:41:16.341Z,6.23
2023-12-30T19:43:20.773Z,5.73
2023-12-30T19:45:23.402Z,5.57
2023-12-30T19:47:25.931Z,5.50
2023-12-30T19:49:28.063Z,6.30
2023-12-30T19:51:31.892Z,5.43
2023-12-30T19:53:34.409Z,5.60
2023-12-30T19:55:36.809Z,6.20
2023-12-30T19:57:38.915Z,5.80
2023-12-30T19:59:41.002Z,5.80
2023-12-30T20:01:43.106Z,4.90
2023-12-30T20:03:47.481Z,5.00
2023-12-30T20:05:50.124Z,5.37
2023-12-30T20:07:52.281Z,5.80
2023-12-30T20:09:54.415Z,4.97
2023-12-30T20:11:56.433Z,4.83
2023-12-30T20:13:58.574Z,6.10
2023-12-30T20:16:00.622Z,5.13
2023-12-30T20:18:04.062Z,4.00
2023-12-30T20:20:07.348Z,5.00
2023-12-30T20:22:10.188Z,5.10
2023-12-30T20:24:12.361Z,4.40
2023-12-30T20:26:14.478Z,4.13
2023-12-30T20:28:16.637Z,4.57
2023-12-30T20:30:18.956Z,4.90
2023-12-30T20:32:21.054Z,5.10
2023-12-30T20:34:23.133Z,5.97
2023-12-30T20:36:27.022Z,5.13
2023-12-30T20:38:29.141Z,5.10
2023-12-30T20:40:31.727Z,5.27
2023-12-30T20:42:35.682Z,4.67
2023-12-30T20:44:39.338Z,4.60
2023-12-30T20:46:45.715Z,5.17
2023-12-30T20:48:47.877Z,5.27
2023-12-30T20:50:50.610Z,5.70
2023-12-30T20:52:52.706Z,5.07
2023-12-30T20:54:54.771Z,4.63
2023-12-30T20:56:56.892Z,5.07
2023-12-30T20:58:58.930Z,4.40
2023-12-30T21:01:01.227Z,4.30
2023-12-30T21:03:04.924Z,4.23
2023-12-30T21:05:09.897Z,4.50
2023-12-30T21:07:12.073Z,4.00
2023-12-30T21:09:15.669Z,4.27
2023-12-30T21:11:19.538Z,5.23
2023-12-30T21:13:21.716Z,5.50
2023-12-30T21:15:24.112Z,5.73
2023-12-30T21:17:26.252Z,5.33
2023-12-30T21:19:32.460Z,6.33
2023-12-30T21:21:34.814Z,5.20
2023-12-30T21:23:36.908Z,4.97
2023-12-30T21:25:39.056Z,4.73
2023-12-30T21:27:41.148Z,4.80
2023-12-30T21:29:43.360Z,5.33
2023-12-30T21:31:45.549Z,5.70
2023-12-30T21:33:50.117Z,5.83
2023-12-30T21:35:53.275Z,5.17
2023-12-30T21:37:55.432Z,5.80
2023-12-30T21:39:57.471Z,5.80
2023-12-30T21:41:59.530Z,6.23
2023-12-30T21:44:01.579Z,4.93
2023-12-30T21:46:04.681Z,5.50
2023-12-30T21:48:08.835Z,4.97
2023-12-30T21:50:11.191Z,5.13
2023-12-30T21:52:13.558Z,5.37
2023-12-30T21:54:15.737Z,5.70
2023-12-30T21:56:17.831Z,5.40
2023-12-30T21:58:19.985Z,5.40
2023-12-30T22:00:22.273Z,5.90
2023-12-30T22:02:24.347Z,6.67
2023-12-30T22:04:26.343Z,8.10
2023-12-30T22:06:28.486Z,8.00
2023-12-30T22:08:30.526Z,5.53
2023-12-30T22:10:32.668Z,5.77
2023-12-30T22:12:34.727Z,5.83
2023-12-30T22:14:37.265Z,5.70
2023-12-30T22:16:40.849Z,5.07
2023-12-30T22:18:43.014Z,5.20
2023-12-30T22:20:45.199Z,4.57
2023-12-30T22:22:47.404Z,5.40
2023-12-30T22:24:49.477Z,5.80
2023-12-30T22:26:51.465Z,5.83
2023-12-30T22:28:53.581Z,5.97
2023-12-30T22:30:55.703Z,5.70
2023-12-30T22:32:57.834Z,4.87
2023-12-30T22:35:04.078Z,5.07
2023-12-30T22:37:06.758Z,5.20
2023-12-30T22:39:08.960Z,4.17
2023-12-30T22:41:11.101Z,6.47
2023-12-30T22:43:13.217Z,4.67
2023-12-30T22:45:15.505Z,4.53
2023-12-30T22:47:17.495Z,4.33
2023-12-30T22:49:19.684Z,5.23
2023-12-30T22:51:21.843Z,5.87
2023-12-30T22:53:23.946Z,5.50
2023-12-30T22:55:26.004Z,4.43
2023-12-30T22:57:29.020Z,4.67
2023-12-30T22:59:31.079Z,5.40
2023-12-30T23:01:33.224Z,5.17
2023-12-30T23:03:35.326Z,4.87
2023-12-30T23:05:37.406Z,4.67
2023-12-30T23:07:39.584Z,4.67
2023-12-30T23:09:41.711Z,4.37
2023-12-30T23:11:44.626Z,4.43
2023-12-30T23:13:46.702Z,4.57
2023-12-30T23:15:49.073Z,4.00
2023-12-30T23:17:51.273Z,4.60
2023-12-30T23:19:53.432Z,4.77
2023-12-30T23:21:55.613Z,4.57
2023-12-30T23:23:58.626Z,5.80
2023-12-30T23:26:00.697Z,4.70
2023-12-30T23:28:03.284Z,4.90
2023-12-30T23:30:06.022Z,5.17
2023-12-30T23:32:08.390Z,5.73
2023-12-30T23:34:11.672Z,6.10
2023-12-30T23:36:13.779Z,6.83
2023-12-30T23:38:15.810Z,6.70
2023-12-30T23:40:18.030Z,6.67
2023-12-30T23:42:20.596Z,6.50
2023-12-30T23:44:22.665Z,7.60
2023-12-30T23:46:25.043Z,6.63
2023-12-30T23:48:27.265Z,6.20
2023-12-30T23:50:29.655Z,6.63
2023-12-30T23:52:31.764Z,6.60
2023-12-30T23:54:33.885Z,6.67
2023-12-30T23:56:45.055Z,6.83
2023-12-30T23:58:47.358Z,6.80
